Time;durP1;ratioP1;P1;durP2;ratioP2;P2;SDS_P1;SDS_P2;PMS_P1;PMS_P2;Temp;Humidity;BMP_temperature;BMP_pressure;BME280_temperature;BME280_humidity;BME280_pressure;Samples;Min_cycle;Max_cycle;Signal;HPM_P1;HPM_P2
2021/07/17 00:00:38;;;;;;;20.90;11.82;;;19.60;99.90;;;;;;5114656;28;20204;-62
2021/07/17 00:03:06;;;;;;;20.27;12.27;;;19.60;99.90;;;;;;5114834;28;20293;-63
2021/07/17 00:05:33;;;;;;;19.98;12.48;;;19.60;99.90;;;;;;5114810;28;20211;-63
2021/07/17 00:08:00;;;;;;;19.15;13.50;;;19.50;99.90;;;;;;5114996;28;20223;-63
2021/07/17 00:10:31;;;;;;;19.80;13.73;;;19.50;99.90;;;;;;5114667;28;20200;-63
2021/07/17 00:12:58;;;;;;;16.65;13.05;;;19.50;99.90;;;;;;5114562;28;20203;-63
2021/07/17 00:15:25;;;;;;;20.98;13.48;;;19.40;99.90;;;;;;5114682;28;20212;-64
2021/07/17 00:17:52;;;;;;;21.63;13.80;;;19.40;99.90;;;;;;5114759;28;20227;-63
2021/07/17 00:20:21;;;;;;;18.60;13.93;;;19.40;99.90;;;;;;5114807;28;20671;-63
2021/07/17 00:22:48;;;;;;;18.65;13.85;;;19.30;99.90;;;;;;5114408;28;20675;-63
2021/07/17 00:25:19;;;;;;;20.25;14.20;;;19.30;99.90;;;;;;5114215;28;20204;-63
2021/07/17 00:27:47;;;;;;;19.13;14.40;;;19.30;99.90;;;;;;5114417;28;20726;-63
2021/07/17 00:30:15;;;;;;;20.58;14.93;;;19.30;99.90;;;;;;5114818;28;20226;-63
2021/07/17 00:32:42;;;;;;;21.85;13.48;;;19.40;99.90;;;;;;5114346;28;20256;-63
2021/07/17 00:35:09;;;;;;;17.50;13.43;;;19.40;99.90;;;;;;5114376;28;20211;-62
2021/07/17 00:37:37;;;;;;;21.77;14.30;;;19.40;99.90;;;;;;5113995;28;20639;-63
2021/07/17 00:40:06;;;;;;;22.70;13.77;;;19.40;99.90;;;;;;5113793;28;20227;-62
2021/07/17 00:42:33;;;;;;;21.27;14.45;;;19.40;99.90;;;;;;5114412;28;20204;-62
2021/07/17 00:45:00;;;;;;;25.45;14.48;;;19.40;99.90;;;;;;5114250;28;20204;-63
2021/07/17 00:47:27;;;;;;;20.55;13.68;;;19.40;99.90;;;;;;5113770;28;20206;-62
2021/07/17 00:49:53;;;;;;;25.90;13.65;;;19.30;99.90;;;;;;5113805;28;20591;-63
2021/07/17 00:52:20;;;;;;;20.92;14.18;;;19.30;99.90;;;;;;5113749;28;20226;-63
2021/07/17 00:54:50;;;;;;;18.15;13.75;;;19.20;99.90;;;;;;5113436;28;20203;-63
2021/07/17 00:57:18;;;;;;;22.75;13.13;;;19.30;99.90;;;;;;5113827;28;20290;-63
2021/07/17 00:59:48;;;;;;;19.35;14.65;;;19.20;99.90;;;;;;5113859;28;20223;-63
2021/07/17 01:02:18;;;;;;;21.85;13.52;;;19.30;99.90;;;;;;5113537;28;20619;-63
2021/07/17 01:04:46;;;;;;;17.75;13.40;;;19.30;99.90;;;;;;5113837;28;20207;-63
2021/07/17 01:07:13;;;;;;;26.27;14.18;;;19.30;99.90;;;;;;5113159;28;20208;-62
2021/07/17 01:09:39;;;;;;;19.08;13.95;;;19.30;99.90;;;;;;5113591;28;20206;-63
2021/07/17 01:12:08;;;;;;;17.92;13.93;;;19.40;99.90;;;;;;5113608;28;20252;-63
2021/07/17 01:14:35;;;;;;;25.90;18.38;;;19.40;99.90;;;;;;5113197;28;20211;-63
2021/07/17 01:17:02;;;;;;;23.60;14.85;;;19.40;99.90;;;;;;5113387;28;20207;-63
2021/07/17 01:19:28;;;;;;;19.77;14.65;;;19.40;99.90;;;;;;5113040;28;20273;-63
2021/07/17 01:21:56;;;;;;;19.40;12.95;;;19.50;99.90;;;;;;5113049;28;20207;-63
2021/07/17 01:24:24;;;;;;;22.05;15.00;;;19.60;99.90;;;;;;5112956;28;20204;-63
2021/07/17 01:26:51;;;;;;;23.60;14.50;;;19.60;99.90;;;;;;5113226;28;20257;-62
2021/07/17 01:29:18;;;;;;;25.83;13.77;;;19.60;99.90;;;;;;5112785;28;20293;-63
2021/07/17 01:31:45;;;;;;;26.05;15.20;;;19.60;99.90;;;;;;5112924;28;20211;-63
2021/07/17 01:34:12;;;;;;;20.75;14.82;;;19.70;99.90;;;;;;5112625;28;20265;-63
2021/07/17 01:36:40;;;;;;;20.25;14.60;;;19.70;99.90;;;;;;5113192;28;20200;-64
2021/07/17 01:39:09;;;;;;;19.20;14.45;;;19.60;99.90;;;;;;5111950;28;20223;-64
2021/07/17 01:41:36;;;;;;;21.90;15.10;;;19.70;99.90;;;;;;5112852;28;20208;-63
2021/07/17 01:44:03;;;;;;;21.38;15.15;;;19.60;99.90;;;;;;5112710;28;20203;-63
2021/07/17 01:46:30;;;;;;;21.98;14.93;;;19.70;99.90;;;;;;5112857;28;20623;-63
2021/07/17 01:48:58;;;;;;;23.95;15.63;;;19.70;99.90;;;;;;5112920;28;20623;-63
2021/07/17 01:51:26;;;;;;;19.67;14.55;;;19.70;99.90;;;;;;5112966;28;20210;-63
2021/07/17 01:53:55;;;;;;;18.73;15.05;;;19.70;99.90;;;;;;5112704;28;20203;-63
2021/07/17 01:56:24;;;;;;;22.52;15.38;;;19.70;99.90;;;;;;5112710;28;20738;-63
2021/07/17 01:58:51;;;;;;;24.30;16.10;;;19.80;99.90;;;;;;5112316;28;20280;-63
2021/07/17 02:01:18;;;;;;;22.33;15.70;;;19.70;99.90;;;;;;5112291;28;20253;-63
2021/07/17 02:03:45;;;;;;;26.92;16.23;;;19.80;99.90;;;;;;5112497;28;20207;-63
2021/07/17 02:06:11;;;;;;;25.05;16.35;;;19.80;99.90;;;;;;5112650;28;20203;-63
2021/07/17 02:08:39;;;;;;;21.65;15.15;;;19.70;99.90;;;;;;5112593;28;20251;-63
2021/07/17 02:11:06;;;;;;;20.77;16.08;;;19.60;99.90;;;;;;5112406;28;20203;-62
2021/07/17 02:13:34;;;;;;;18.73;15.18;;;19.60;99.90;;;;;;5112108;28;20260;-63
2021/07/17 02:16:01;;;;;;;20.75;15.52;;;19.70;99.90;;;;;;5112002;28;20257;-62
2021/07/17 02:18:31;;;;;;;21.98;15.43;;;19.60;99.90;;;;;;5112060;28;20226;-63
2021/07/17 02:20:59;;;;;;;22.70;14.43;;;19.60;99.90;;;;;;5112080;28;20677;-63
2021/07/17 02:23:26;;;;;;;20.20;14.02;;;19.70;99.90;;;;;;5111866;28;20199;-62
2021/07/17 02:25:53;;;;;;;29.20;15.35;;;19.70;99.90;;;;;;5111943;28;20208;-63
2021/07/17 02:28:20;;;;;;;23.88;14.40;;;19.70;99.90;;;;;;5111820;28;20278;-63
2021/07/17 02:30:48;;;;;;;20.27;14.88;;;19.70;99.90;;;;;;5112065;28;20276;-63
2021/07/17 02:33:15;;;;;;;22.40;13.95;;;19.70;99.90;;;;;;5112002;28;20605;-63
2021/07/17 02:35:42;;;;;;;22.60;13.18;;;19.70;99.90;;;;;;5111652;28;20203;-63
2021/07/17 02:38:08;;;;;;;18.88;13.73;;;19.70;99.90;;;;;;5111878;28;20268;-62
2021/07/17 02:40:35;;;;;;;17.10;13.52;;;19.60;99.90;;;;;;5112089;28;20235;-63
2021/07/17 02:43:02;;;;;;;18.67;12.25;;;19.60;99.90;;;;;;5111761;28;20496;-63
2021/07/17 02:45:29;;;;;;;23.00;13.18;;;19.60;99.90;;;;;;5111573;28;20205;-63
2021/07/17 02:47:57;;;;;;;17.00;13.05;;;19.60;99.90;;;;;;5111706;28;20227;-63
2021/07/17 02:50:24;;;;;;;22.63;13.07;;;19.70;99.90;;;;;;5111872;28;20207;-63
2021/07/17 02:52:50;;;;;;;17.48;13.43;;;19.70;99.90;;;;;;5111798;28;20207;-63
2021/07/17 02:55:17;;;;;;;20.02;13.38;;;19.60;99.90;;;;;;5111742;28;20249;-63
2021/07/17 02:57:44;;;;;;;19.13;12.90;;;19.60;99.90;;;;;;5111732;28;20227;-62
2021/07/17 03:00:13;;;;;;;21.00;13.10;;;19.60;99.90;;;;;;5112074;28;20223;-62
2021/07/17 03:02:40;;;;;;;16.17;13.27;;;19.70;99.90;;;;;;5111931;28;20667;-63
2021/07/17 03:05:09;;;;;;;18.33;13.13;;;19.60;99.90;;;;;;5111653;28;20208;-63
2021/07/17 03:07:36;;;;;;;22.27;14.18;;;19.50;99.90;;;;;;5111881;28;20224;-63
2021/07/17 03:10:03;;;;;;;18.02;13.40;;;19.60;99.90;;;;;;5112176;28;20506;-64
2021/07/17 03:12:30;;;;;;;16.40;13.07;;;19.60;99.90;;;;;;5111956;28;20593;-63
2021/07/17 03:14:57;;;;;;;17.35;13.63;;;19.70;99.90;;;;;;5111777;28;20213;-62
2021/07/17 03:17:23;;;;;;;20.73;13.88;;;19.70;99.90;;;;;;5111537;28;20204;-62
2021/07/17 03:19:50;;;;;;;20.60;13.52;;;19.80;99.90;;;;;;5111697;28;20219;-63
2021/07/17 03:22:18;;;;;;;20.63;14.43;;;19.70;99.90;;;;;;5111733;28;20210;-63
2021/07/17 03:24:45;;;;;;;19.98;14.05;;;19.70;99.90;;;;;;5111204;28;20203;-63
2021/07/17 03:27:11;;;;;;;16.55;14.15;;;19.70;99.90;;;;;;5111533;28;20204;-63
2021/07/17 03:29:38;;;;;;;18.42;14.23;;;19.80;99.90;;;;;;5115462;22;20269;-62
2021/07/17 03:32:05;;;;;;;24.23;15.70;;;19.70;99.90;;;;;;5090649;28;20200;-63
2021/07/17 03:34:33;;;;;;;18.48;14.55;;;19.60;99.90;;;;;;5090560;28;20208;-63
2021/07/17 03:36:59;;;;;;;21.80;14.77;;;19.60;99.90;;;;;;5090640;28;20204;-62
2021/07/17 03:39:27;;;;;;;23.50;15.57;;;19.60;99.90;;;;;;5092113;28;20228;-62
2021/07/17 03:41:54;;;;;;;20.02;15.25;;;19.70;99.90;;;;;;5091760;28;20208;-63
2021/07/17 03:44:24;;;;;;;17.50;13.75;;;19.70;99.90;;;;;;5090936;28;20212;-63
2021/07/17 03:46:51;;;;;;;22.35;14.85;;;19.70;99.90;;;;;;5090770;28;20656;-63
2021/07/17 03:49:17;;;;;;;19.98;13.90;;;19.70;99.90;;;;;;5090192;28;20220;-63
2021/07/17 03:51:44;;;;;;;17.67;13.50;;;19.60;99.90;;;;;;5090514;28;20246;-62
2021/07/17 03:54:11;;;;;;;16.67;13.20;;;19.60;99.90;;;;;;5091187;28;20200;-63
2021/07/17 03:56:39;;;;;;;20.05;13.20;;;19.50;99.90;;;;;;5090971;28;20490;-62
2021/07/17 03:59:05;;;;;;;17.88;12.95;;;19.40;99.90;;;;;;5090295;28;20227;-62
2021/07/17 04:01:32;;;;;;;24.20;14.15;;;19.40;99.90;;;;;;5091160;28;20200;-63
2021/07/17 04:03:59;;;;;;;22.67;14.40;;;19.50;99.90;;;;;;5094095;28;20729;-62
2021/07/17 04:06:25;;;;;;;24.55;14.52;;;19.60;99.90;;;;;;5093973;28;20216;-63
2021/07/17 04:08:52;;;;;;;20.40;14.32;;;19.60;99.90;;;;;;5093946;28;20731;-63
2021/07/17 04:11:19;;;;;;;19.10;14.18;;;19.70;99.90;;;;;;5094191;28;20691;-63
2021/07/17 04:13:47;;;;;;;20.70;13.93;;;19.50;99.90;;;;;;5093836;28;20208;-63
2021/07/17 04:16:13;;;;;;;19.30;14.15;;;19.40;99.90;;;;;;5094302;28;20672;-63
2021/07/17 04:18:40;;;;;;;19.40;13.90;;;19.20;99.90;;;;;;5094216;28;20719;-63
2021/07/17 04:21:07;;;;;;;20.80;14.38;;;19.20;99.90;;;;;;5094230;28;20571;-63
2021/07/17 04:23:33;;;;;;;23.48;13.82;;;19.10;99.90;;;;;;5094448;28;20208;-63
2021/07/17 04:26:00;;;;;;;15.95;13.50;;;19.00;99.90;;;;;;5094983;28;20405;-63
2021/07/17 04:28:28;;;;;;;18.58;14.95;;;19.00;99.90;;;;;;5094171;28;20584;-62
2021/07/17 04:30:56;;;;;;;22.25;15.15;;;19.00;99.90;;;;;;5094110;28;20671;-63
2021/07/17 04:33:23;;;;;;;18.95;15.50;;;19.20;99.90;;;;;;5093812;28;20208;-63
2021/07/17 04:35:50;;;;;;;22.38;15.23;;;19.30;99.90;;;;;;5093803;28;20208;-63
2021/07/17 04:38:16;;;;;;;16.13;14.23;;;19.40;99.90;;;;;;5093836;28;20628;-63
2021/07/17 04:40:43;;;;;;;21.90;14.57;;;19.40;99.90;;;;;;5093379;28;20574;-62
2021/07/17 04:43:10;;;;;;;23.15;15.02;;;19.50;99.90;;;;;;5093333;28;20208;-62
2021/07/17 04:45:36;;;;;;;21.30;14.80;;;19.40;99.90;;;;;;5093136;28;20208;-63
2021/07/17 04:48:05;;;;;;;18.98;14.68;;;19.40;99.90;;;;;;5092792;28;20224;-63
2021/07/17 04:50:32;;;;;;;19.00;13.45;;;19.50;99.90;;;;;;5093107;28;20204;-63
2021/07/17 04:52:59;;;;;;;22.48;15.20;;;19.60;99.90;;;;;;5093069;28;20671;-63
2021/07/17 04:55:26;;;;;;;22.55;14.93;;;19.70;99.90;;;;;;5092963;28;20208;-63
2021/07/17 04:57:52;;;;;;;18.50;15.63;;;19.60;99.90;;;;;;5092648;28;20323;-62
2021/07/17 05:00:20;;;;;;;22.02;14.65;;;19.70;99.90;;;;;;5092740;28;20220;-64
2021/07/17 05:02:48;;;;;;;17.55;14.35;;;19.80;99.90;;;;;;5092919;28;20211;-63
2021/07/17 05:05:17;;;;;;;20.38;14.15;;;19.80;99.90;;;;;;5092929;28;20583;-62
2021/07/17 05:07:44;;;;;;;19.35;14.65;;;19.90;99.90;;;;;;5092782;28;20208;-63
2021/07/17 05:10:13;;;;;;;22.23;15.25;;;20.00;99.90;;;;;;5092873;28;20462;-63
2021/07/17 05:12:39;;;;;;;20.88;15.02;;;20.00;99.90;;;;;;5092342;28;20713;-63
2021/07/17 05:15:07;;;;;;;25.15;16.92;;;20.00;99.90;;;;;;5092061;28;20242;-62
2021/07/17 05:17:34;;;;;;;21.02;15.35;;;20.10;99.90;;;;;;5092950;28;20204;-63
2021/07/17 05:20:00;;;;;;;22.02;15.75;;;20.20;99.90;;;;;;5092723;28;20216;-63
2021/07/17 05:22:28;;;;;;;18.77;14.65;;;20.20;99.90;;;;;;5093128;28;20258;-63
2021/07/17 05:24:55;;;;;;;21.35;14.82;;;20.30;99.90;;;;;;5092616;28;20215;-63
2021/07/17 05:27:22;;;;;;;19.02;16.20;;;20.30;99.90;;;;;;5092649;28;20216;-63
2021/07/17 05:29:49;;;;;;;20.52;14.63;;;20.20;99.90;;;;;;5092443;28;20643;-63
2021/07/17 05:32:15;;;;;;;20.00;15.02;;;20.20;99.90;;;;;;5092652;28;20249;-62
2021/07/17 05:34:42;;;;;;;21.77;15.10;;;20.10;99.90;;;;;;5092265;28;20216;-63
2021/07/17 05:37:09;;;;;;;24.75;15.50;;;20.10;99.90;;;;;;5090456;28;20223;-63
2021/07/17 05:39:39;;;;;;;19.13;14.73;;;20.20;99.90;;;;;;5091060;28;20664;-63
2021/07/17 05:42:06;;;;;;;18.73;14.32;;;20.30;99.90;;;;;;5092123;28;20212;-63
2021/07/17 05:44:33;;;;;;;20.90;15.40;;;20.30;99.90;;;;;;5092314;28;20208;-63
2021/07/17 05:47:00;;;;;;;20.65;14.45;;;20.10;99.90;;;;;;5092047;28;20227;-62
2021/07/17 05:49:27;;;;;;;22.05;15.50;;;20.10;99.90;;;;;;5091729;28;20227;-61
2021/07/17 05:51:54;;;;;;;22.73;15.27;;;20.20;99.90;;;;;;5091921;28;20205;-63
2021/07/17 05:54:20;;;;;;;21.42;15.20;;;20.20;99.90;;;;;;5091959;28;20212;-63
2021/07/17 05:56:48;;;;;;;20.38;16.10;;;20.30;99.90;;;;;;5091680;28;20204;-63
2021/07/17 05:59:15;;;;;;;23.10;15.90;;;20.40;99.90;;;;;;5091590;28;20233;-63
2021/07/17 06:01:41;;;;;;;23.10;16.65;;;20.30;99.90;;;;;;5091575;28;20224;-63
2021/07/17 06:04:08;;;;;;;18.70;15.68;;;20.30;99.90;;;;;;5091605;28;20205;-61
2021/07/17 06:06:35;;;;;;;23.40;16.77;;;20.40;99.90;;;;;;5091399;28;20671;-61
2021/07/17 06:09:01;;;;;;;19.58;16.40;;;20.30;99.90;;;;;;5091136;28;20221;-63
2021/07/17 06:11:28;;;;;;;19.80;15.50;;;20.30;99.90;;;;;;5091402;28;20201;-63
2021/07/17 06:13:56;;;;;;;18.48;15.02;;;20.30;99.90;;;;;;5091366;28;20219;-63
2021/07/17 06:16:23;;;;;;;20.83;15.95;;;20.30;99.90;;;;;;5091408;28;20204;-61
2021/07/17 06:18:50;;;;;;;18.75;15.40;;;20.40;99.90;;;;;;5091012;28;20580;-61
2021/07/17 06:21:17;;;;;;;21.42;16.05;;;20.40;99.90;;;;;;5091146;28;20224;-62
2021/07/17 06:23:44;;;;;;;19.40;15.73;;;20.40;99.90;;;;;;5091021;28;20215;-62
2021/07/17 06:26:10;;;;;;;20.85;16.23;;;20.50;99.90;;;;;;5091327;28;20606;-60
2021/07/17 06:28:39;;;;;;;25.63;16.17;;;20.50;99.90;;;;;;5090833;28;20368;-61
2021/07/17 06:31:07;;;;;;;21.00;15.43;;;20.40;99.90;;;;;;5090881;28;20208;-61
2021/07/17 06:33:34;;;;;;;21.15;15.57;;;20.30;99.90;;;;;;5091330;28;20660;-63
2021/07/17 06:36:01;;;;;;;20.60;15.40;;;20.30;99.90;;;;;;5091162;28;20291;-61
2021/07/17 06:38:28;;;;;;;22.80;16.20;;;20.30;99.90;;;;;;5090645;28;20314;-62
2021/07/17 06:40:54;;;;;;;19.95;14.82;;;20.30;99.90;;;;;;5090519;28;20243;-62
2021/07/17 06:43:21;;;;;;;21.27;17.02;;;20.50;99.90;;;;;;5090966;28;20294;-61
2021/07/17 06:45:48;;;;;;;20.15;15.30;;;20.80;99.90;;;;;;5091226;28;20204;-64
2021/07/17 06:48:16;;;;;;;20.98;14.93;;;21.00;99.90;;;;;;5091002;28;20462;-65
2021/07/17 06:50:43;;;;;;;19.92;14.35;;;21.10;99.90;;;;;;5090918;28;20273;-64
2021/07/17 06:53:10;;;;;;;25.20;15.63;;;21.10;99.90;;;;;;5091114;28;20217;-66
2021/07/17 06:55:37;;;;;;;21.95;14.93;;;21.00;99.90;;;;;;5092677;28;20679;-62
2021/07/17 06:58:04;;;;;;;18.50;14.60;;;21.10;99.90;;;;;;5091453;28;20270;-61
2021/07/17 07:00:34;;;;;;;18.25;14.73;;;21.00;99.90;;;;;;5090645;28;20784;-69
2021/07/17 07:03:00;;;;;;;23.38;15.65;;;20.90;99.90;;;;;;5090998;28;20208;-64
2021/07/17 07:05:30;;;;;;;20.58;14.30;;;20.80;99.90;;;;;;5090601;28;20388;-65
2021/07/17 07:07:57;;;;;;;19.25;15.15;;;20.80;99.90;;;;;;5091373;28;20216;-64
2021/07/17 07:10:24;;;;;;;23.70;15.45;;;20.90;99.90;;;;;;5090882;28;20200;-66
2021/07/17 07:12:50;;;;;;;24.45;14.48;;;21.10;99.90;;;;;;5090900;28;20250;-63
2021/07/17 07:15:18;;;;;;;26.42;14.20;;;21.00;99.90;;;;;;5091180;28;20233;-63
2021/07/17 07:17:45;;;;;;;17.73;14.00;;;21.00;99.90;;;;;;5091190;28;20261;-66
2021/07/17 07:20:13;;;;;;;16.27;13.73;;;20.90;99.90;;;;;;5090903;28;20307;-64
2021/07/17 07:22:41;;;;;;;21.70;14.35;;;20.90;99.90;;;;;;5091266;28;20200;-63
2021/07/17 07:25:10;;;;;;;24.67;14.48;;;21.00;99.90;;;;;;5091025;28;20209;-61
2021/07/17 07:27:37;;;;;;;19.25;13.63;;;21.00;99.90;;;;;;5090642;28;20575;-63
2021/07/17 07:30:05;;;;;;;19.85;14.20;;;21.00;99.90;;;;;;5090960;28;20211;-60
2021/07/17 07:32:32;;;;;;;19.40;14.35;;;21.10;99.90;;;;;;5090518;28;20200;-62
2021/07/17 07:34:58;;;;;;;24.30;14.38;;;21.10;99.90;;;;;;5090534;28;20631;-61
2021/07/17 07:37:27;;;;;;;21.33;13.45;;;21.20;99.90;;;;;;5092602;28;20199;-61
2021/07/17 07:39:55;;;;;;;24.17;14.48;;;21.20;99.90;;;;;;5094175;28;20624;-61
2021/07/17 07:42:23;;;;;;;26.10;14.35;;;21.10;99.90;;;;;;5094130;28;20246;-61
2021/07/17 07:44:50;;;;;;;21.08;13.05;;;21.00;99.90;;;;;;5094110;28;20200;-61
2021/07/17 07:47:16;;;;;;;22.33;13.43;;;21.00;99.90;;;;;;5093990;28;20217;-61
2021/07/17 07:49:43;;;;;;;18.17;12.73;;;20.90;99.90;;;;;;5093806;28;20705;-62
2021/07/17 07:52:10;;;;;;;24.92;14.13;;;20.90;99.90;;;;;;5094410;28;20208;-61
2021/07/17 07:54:37;;;;;;;27.23;13.25;;;21.10;99.90;;;;;;5094241;28;20232;-64
2021/07/17 07:57:06;;;;;;;22.00;14.63;;;21.20;99.90;;;;;;5094173;28;20508;-61
2021/07/17 07:59:32;;;;;;;26.35;14.50;;;21.00;99.90;;;;;;5093765;28;20231;-61
2021/07/17 08:01:59;;;;;;;21.80;13.80;;;21.10;99.90;;;;;;5094010;28;20227;-60
2021/07/17 08:04:26;;;;;;;23.20;13.25;;;21.20;99.90;;;;;;5093905;28;20230;-62
2021/07/17 08:06:52;;;;;;;22.77;14.20;;;21.50;99.90;;;;;;5093942;28;20627;-62
2021/07/17 08:09:19;;;;;;;19.70;14.15;;;21.70;99.90;;;;;;5093653;28;20232;-62
2021/07/17 08:11:46;;;;;;;23.35;13.70;;;21.90;99.90;;;;;;5093792;28;20258;-62
2021/07/17 08:14:14;;;;;;;19.40;13.00;;;22.00;99.90;;;;;;5093658;28;20215;-62
2021/07/17 08:16:40;;;;;;;22.30;12.70;;;22.30;99.90;;;;;;5093898;28;20212;-62
2021/07/17 08:19:07;;;;;;;16.15;12.40;;;22.50;99.90;;;;;;5093700;28;20361;-62
2021/07/17 08:21:34;;;;;;;19.35;12.50;;;22.70;99.90;;;;;;5093757;28;20250;-61
2021/07/17 08:24:02;;;;;;;22.15;12.45;;;22.60;99.90;;;;;;5093849;28;20231;-62
2021/07/17 08:26:29;;;;;;;23.58;13.38;;;22.60;99.90;;;;;;5093811;28;20664;-62
2021/07/17 08:28:56;;;;;;;22.60;13.13;;;22.60;99.90;;;;;;5093748;28;20240;-62
2021/07/17 08:31:24;;;;;;;23.95;13.02;;;22.70;99.90;;;;;;5093748;28;20618;-62
2021/07/17 08:33:51;;;;;;;18.25;12.52;;;22.80;99.90;;;;;;5093785;28;20205;-63
2021/07/17 08:36:18;;;;;;;22.08;11.75;;;22.80;99.90;;;;;;5093466;28;20204;-62
2021/07/17 08:38:45;;;;;;;20.17;13.30;;;22.70;99.90;;;;;;5092764;28;20436;-67
2021/07/17 08:41:12;;;;;;;20.52;12.30;;;22.60;99.90;;;;;;5093243;28;20324;-62
2021/07/17 08:43:40;;;;;;;23.13;12.55;;;22.60;99.90;;;;;;5093250;28;20227;-62
2021/07/17 08:46:07;;;;;;;21.08;13.10;;;22.80;99.90;;;;;;5092847;28;20296;-63
2021/07/17 08:48:36;;;;;;;22.33;12.07;;;23.00;99.90;;;;;;5092344;28;20289;-61
2021/07/17 08:51:04;;;;;;;17.58;10.82;;;23.30;99.90;;;;;;5093229;28;20208;-61
2021/07/17 08:53:33;;;;;;;17.00;11.07;;;23.40;99.90;;;;;;5093018;28;20247;-61
2021/07/17 08:56:00;;;;;;;19.63;11.73;;;23.40;99.90;;;;;;5092858;28;20201;-61
2021/07/17 08:58:28;;;;;;;17.55;11.45;;;23.30;99.90;;;;;;5093157;28;20383;-61
2021/07/17 09:00:54;;;;;;;13.63;11.02;;;23.00;99.90;;;;;;5093003;28;20215;-62
2021/07/17 09:03:21;;;;;;;15.75;11.15;;;22.80;99.90;;;;;;5093012;28;20200;-62
2021/07/17 09:05:49;;;;;;;18.42;10.55;;;22.50;99.90;;;;;;5092934;28;20587;-62
2021/07/17 09:08:18;;;;;;;17.92;12.35;;;22.40;99.90;;;;;;5092763;28;20631;-61
2021/07/17 09:10:47;;;;;;;20.65;11.77;;;22.30;99.90;;;;;;5093428;28;20204;-62
2021/07/17 09:13:17;;;;;;;15.88;11.07;;;22.30;99.90;;;;;;5093790;28;20204;-61
2021/07/17 09:15:54;;;;;;;13.52;11.55;;;22.30;99.90;;;;;;5093978;28;20204;-61
2021/07/17 09:18:26;;;;;;;17.63;12.30;;;22.30;99.90;;;;;;5093692;28;20276;-61
2021/07/17 09:21:00;;;;;;;16.98;12.00;;;22.20;99.90;;;;;;5094325;28;20231;-61
2021/07/17 09:23:28;;;;;;;20.10;11.68;;;22.20;99.90;;;;;;5094129;28;20208;-64
2021/07/17 09:25:55;;;;;;;15.02;12.07;;;22.10;99.90;;;;;;5094801;28;20212;-62
2021/07/17 09:28:24;;;;;;;20.98;11.63;;;22.00;99.90;;;;;;5112843;22;20268;-55
2021/07/17 09:30:52;;;;;;;20.10;11.82;;;22.00;99.90;;;;;;5073162;28;20209;-57
2021/07/17 09:33:19;;;;;;;18.48;12.60;;;22.10;99.90;;;;;;5073250;28;20258;-56
2021/07/17 09:35:47;;;;;;;17.83;11.00;;;22.20;99.90;;;;;;5072933;28;20691;-56
2021/07/17 09:38:17;;;;;;;17.13;11.43;;;22.20;99.90;;;;;;5072666;28;20652;-58
2021/07/17 09:40:49;;;;;;;16.05;12.10;;;22.40;99.90;;;;;;5072523;28;20701;-57
2021/07/17 09:43:43;;;;;;;20.50;12.68;;;22.60;99.90;;;;;;5072687;28;20197;-57
2021/07/17 09:46:19;;;;;;;17.63;11.60;;;22.90;99.90;;;;;;5024921;28;20208;-57
2021/07/17 09:48:48;;;;;;;17.50;11.90;;;23.10;99.90;;;;;;5072637;28;20232;-57
2021/07/17 09:51:19;;;;;;;15.95;11.38;;;23.30;99.90;;;;;;5071960;28;20205;-58
2021/07/17 09:53:48;;;;;;;15.52;10.70;;;23.70;99.90;;;;;;5071674;28;20205;-57
2021/07/17 09:56:17;;;;;;;15.68;10.23;;;24.00;99.90;;;;;;5071804;28;20216;-58
2021/07/17 09:58:45;;;;;;;16.92;11.15;;;24.40;99.90;;;;;;5071385;28;20708;-58
2021/07/17 10:01:16;;;;;;;18.48;10.85;;;24.50;99.90;;;;;;5071505;28;20231;-58
2021/07/17 10:03:44;;;;;;;21.45;11.55;;;24.60;99.90;;;;;;5071583;28;20643;-57
2021/07/17 10:06:24;;;;;;;14.38;10.45;;;24.50;99.90;;;;;;5071110;28;20209;-58
2021/07/17 10:08:53;;;;;;;17.75;11.90;;;24.60;99.90;;;;;;5071204;28;20274;-58
2021/07/17 10:11:23;;;;;;;15.02;10.65;;;24.70;99.90;;;;;;5071681;28;20208;-57
2021/07/17 10:13:50;;;;;;;14.30;10.73;;;24.80;99.90;;;;;;5071576;28;20209;-57
2021/07/17 10:16:18;;;;;;;13.88;10.38;;;25.00;99.90;;;;;;5071412;28;20204;-57
2021/07/17 10:18:45;;;;;;;16.77;10.88;;;25.00;99.90;;;;;;5071019;28;20631;-58
2021/07/17 10:21:13;;;;;;;17.35;10.27;;;24.90;99.90;;;;;;5071058;28;20239;-57
2021/07/17 10:23:40;;;;;;;17.38;11.23;;;24.60;99.90;;;;;;5071116;28;20282;-57
2021/07/17 10:26:10;;;;;;;17.48;10.63;;;24.40;99.90;;;;;;5071461;28;20212;-58
2021/07/17 10:28:37;;;;;;;16.05;9.73;;;24.50;99.90;;;;;;5071099;28;20377;-57
2021/07/17 10:31:06;;;;;;;13.93;10.75;;;24.70;99.90;;;;;;5071275;28;20205;-59
2021/07/17 10:33:34;;;;;;;14.30;9.85;;;24.90;99.90;;;;;;5071014;28;20258;-57
2021/07/17 10:36:07;;;;;;;16.25;10.25;;;25.10;99.90;;;;;;5071770;28;20276;-58
2021/07/17 10:38:35;;;;;;;16.73;10.50;;;25.20;99.90;;;;;;5071209;28;20270;-58
2021/07/17 10:41:02;;;;;;;14.55;10.13;;;25.40;99.90;;;;;;5071063;28;20209;-58
2021/07/17 10:43:32;;;;;;;15.98;10.45;;;25.60;99.90;;;;;;5070477;28;20600;-57
2021/07/17 10:45:59;;;;;;;16.65;9.90;;;25.60;99.90;;;;;;5071107;28;20235;-58
2021/07/17 10:48:27;;;;;;;17.25;9.85;;;25.80;99.90;;;;;;5071288;28;20282;-59
2021/07/17 10:50:54;;;;;;;15.52;10.38;;;26.10;99.90;;;;;;5071228;28;20205;-58
2021/07/17 10:53:43;;;;;;;15.85;9.95;;;26.50;99.90;;;;;;5071201;28;20197;-57
2021/07/17 10:56:40;;;;;;;13.30;9.55;;;27.00;99.90;;;;;;5070704;28;20250;-57
2021/07/17 10:59:24;;;;;;;16.92;9.90;;;27.20;99.90;;;;;;5070771;28;20309;-57
2021/07/17 11:02:04;;;;;;;14.75;9.65;;;27.40;99.90;;;;;;5070562;28;20254;-58
2021/07/17 11:04:33;;;;;;;15.43;9.05;;;27.80;99.90;;;;;;5070844;28;20216;-58
2021/07/17 11:07:39;;;;;;;13.25;9.55;;;27.90;99.90;;;;;;5070662;28;20201;-59
2021/07/17 11:10:39;;;;;;;18.73;9.85;;;27.80;99.90;;;;;;5070721;28;20314;-58
2021/07/17 11:13:05;;;;;;;15.88;9.25;;;27.60;99.90;;;;;;5074850;28;20220;-58
2021/07/17 11:15:49;;;;;;;16.10;9.60;;;27.20;99.90;;;;;;5074374;28;20211;-58
2021/07/17 11:18:25;;;;;;;17.65;9.88;;;26.80;99.90;;;;;;5074901;28;20231;-58
2021/07/17 11:20:58;;;;;;;27.30;21.90;;;26.70;99.90;;;;;;5074817;28;20842;-58
2021/07/17 11:23:30;;;;;;;13.98;9.50;;;26.70;99.90;;;;;;5074468;28;20710;-57
2021/07/17 11:25:59;;;;;;;16.67;10.00;;;26.70;99.90;;;;;;5074380;28;20200;-58
2021/07/17 11:29:02;;;;;;;15.13;10.57;;;26.50;99.90;;;;;;5074609;28;20305;-58
2021/07/17 11:32:06;;;;;;;19.08;11.30;;;26.30;99.90;;;;;;5069848;28;20208;-57
2021/07/17 11:34:39;;;;;;;11.60;8.95;;;26.10;99.90;;;;;;5074675;28;20209;-58
2021/07/17 11:37:10;;;;;;;13.50;9.57;;;26.00;99.90;;;;;;5074757;28;20205;-57
2021/07/17 11:39:39;;;;;;;13.63;10.25;;;25.80;99.90;;;;;;5074446;28;20239;-59
2021/07/17 11:42:08;;;;;;;16.27;11.40;;;25.80;99.90;;;;;;5074372;28;20594;-57
2021/07/17 11:44:37;;;;;;;17.50;9.73;;;25.70;99.90;;;;;;5073963;28;20205;-58
2021/07/17 11:47:06;;;;;;;16.50;10.55;;;25.50;99.90;;;;;;5074543;28;20237;-58
2021/07/17 11:49:35;;;;;;;18.13;12.68;;;25.50;99.90;;;;;;5074341;28;20247;-58
2021/07/17 11:52:05;;;;;;;15.25;10.02;;;25.40;99.90;;;;;;5074461;28;20208;-57
2021/07/17 11:54:35;;;;;;;15.18;10.00;;;25.40;99.90;;;;;;5074416;28;20211;-57
2021/07/17 11:57:07;;;;;;;13.98;9.80;;;25.40;99.90;;;;;;5074219;28;20211;-58
2021/07/17 11:59:35;;;;;;;14.00;9.93;;;25.40;99.90;;;;;;5074150;28;20232;-58
2021/07/17 12:02:08;;;;;;;14.70;10.38;;;25.50;99.90;;;;;;5074041;28;20227;-57
2021/07/17 12:04:36;;;;;;;16.00;9.25;;;25.60;99.90;;;;;;5074510;28;20205;-57
2021/07/17 12:07:05;;;;;;;11.70;9.32;;;25.60;99.90;;;;;;5074182;28;20216;-59
2021/07/17 12:09:34;;;;;;;13.45;9.73;;;25.60;99.90;;;;;;5074206;28;20225;-57
2021/07/17 12:12:15;;;;;;;15.32;10.23;;;25.50;99.90;;;;;;5074137;28;20205;-57
2021/07/17 12:14:42;;;;;;;17.35;9.40;;;25.60;99.90;;;;;;5073692;28;20204;-57
2021/07/17 12:17:10;;;;;;;12.98;9.57;;;25.50;99.90;;;;;;5073735;28;20205;-57
2021/07/17 12:19:37;;;;;;;15.85;10.07;;;25.40;99.90;;;;;;5073963;28;20731;-58
2021/07/17 12:22:04;;;;;;;19.60;12.52;;;25.30;99.90;;;;;;5072919;28;20228;-60
2021/07/17 12:24:31;;;;;;;15.82;11.52;;;25.10;99.90;;;;;;5073573;28;20242;-58
2021/07/17 12:27:02;;;;;;;13.98;11.30;;;25.10;99.90;;;;;;5073660;28;20213;-58
2021/07/17 12:29:29;;;;;;;12.93;9.50;;;25.20;99.90;;;;;;5073256;28;20262;-58
2021/07/17 12:32:00;;;;;;;14.68;9.75;;;25.40;99.90;;;;;;5073800;28;20250;-58
2021/07/17 12:34:28;;;;;;;14.77;9.00;;;25.70;99.90;;;;;;5073304;28;20208;-59